Seawolf — WDE7235 — position and weather

sailwx.info

Track history (hours):
 
Tides and Currents Weather Stations Pressure Air Temp Water Temp Dewpoint Dewpoint Depression Visibility Wind Speed Wind Dir Waves Ship Positions

Oceanographic research ship Seawolf (United States)

Owner: School of Marine and Atmospheric Sciences, Stony Brook University, NY, Stony Brook, NY. More information available from US FCC via Universal Licensing System and Coast Guard Vessel Documentation Center.

Last reported at 2017-Oct-22 18:57 UTC. Time now 2017-Oct-22 19:14 UTC.
Position N 38°45' W 074°35'.

Length 24 m; draft 3.5 m.

Type: Other ship. MMSI: 367390740.

Date/timePositionNaut miles runAvg speedWind from/ knotsBaromVisibWave heightAir tempDewpointWater temp
2017-Oct-22 18:57N 38°45' W 074°35'5 6.5
2017-Oct-22 18:13N 38°41' W 074°39'1 1.8
2017-Oct-22 17:50N 38°41' W 074°39'1 2.8
2017-Oct-22 17:30N 38°42' W 074°40'4 5.0
2017-Oct-22 16:48N 38°43' W 074°44'3 9.3
2017-Oct-22 16:30N 38°44' W 074°47'3 5.9
2017-Oct-22 16:00N 38°46' W 074°51'1 2.8
2017-Oct-22 15:30N 38°46' W 074°52'4 8.2
2017-Oct-22 15:00N 38°50' W 074°50'2 4.5
2017-Oct-22 14:29N 38°52' W 074°51'1 2.8
2017-Oct-22 14:00N 38°52' W 074°52'1 2.2
2017-Oct-22 13:30N 38°53' W 074°53'1 1.7
2017-Oct-22 13:00N 38°52' W 074°54'1 1.1
2017-Oct-22 12:30N 38°52' W 074°55'1 2.7
2017-Oct-22 12:00N 38°54' W 074°55'1 1.6
2017-Oct-22 11:30N 38°54' W 074°56'3 7.0
2017-Oct-22 11:00N 38°57' W 074°52'1 1.9
2017-Oct-22 10:27N 38°57' W 074°53'0 0.0
2017-Oct-22 09:51N 38°57' W 074°53'0 0.0
2017-Oct-22 09:30N 38°57' W 074°53'0 0.0
2017-Oct-22 09:00N 38°57' W 074°53'0 0.0
2017-Oct-22 08:30N 38°57' W 074°53'0 0.0
2017-Oct-22 07:54N 38°57' W 074°53'0 0.0
2017-Oct-22 07:30N 38°57' W 074°53'0 0.0
2017-Oct-22 07:00N 38°57' W 074°53'0 0.0
2017-Oct-22 06:30N 38°57' W 074°53'0 0.0
2017-Oct-22 05:57N 38°57' W 074°53'0 0.0
2017-Oct-22 05:30N 38°57' W 074°53'0 0.0
2017-Oct-22 05:00N 38°57' W 074°53'0 0.0
2017-Oct-22 04:30N 38°57' W 074°53'0 0.0
2017-Oct-22 04:00N 38°57' W 074°53'0 0.0
2017-Oct-22 03:30N 38°57' W 074°53'0 0.0
2017-Oct-22 03:00N 38°57' W 074°53'0 0.0
2017-Oct-22 02:27N 38°57' W 074°53'0 0.0
2017-Oct-22 02:00N 38°57' W 074°53'0 0.0
2017-Oct-22 01:30N 38°57' W 074°53'0 0.0
2017-Oct-22 01:00N 38°57' W 074°53'0 0.0
2017-Oct-22 00:30N 38°57' W 074°53'0 0.0
2017-Oct-22 00:00N 38°57' W 074°53'0 0.0
2017-Oct-21 23:30N 38°57' W 074°53'0 0.0
2017-Oct-21 23:00N 38°57' W 074°53'1 1.5
2017-Oct-21 22:27N 38°57' W 074°52'2 3.3
2017-Oct-21 21:56N 38°55' W 074°51'4 6.0
2017-Oct-21 21:14N 38°58' W 074°47'17 2.7
2017-Oct-21 15:02N 39°13' W 074°36'1 8.1
2017-Oct-21 14:56N 39°13' W 074°35'4 3.5
2017-Oct-21 13:54N 39°16' W 074°32'1 3.2
2017-Oct-21 13:30N 39°16' W 074°31'1 2.8
2017-Oct-21 13:00N 39°17' W 074°30'1 1.7
2017-Oct-21 12:21N 39°18' W 074°29'3 7.5
2017-Oct-21 12:00N 39°19' W 074°26'3 2.8
2017-Oct-21 10:52N 39°22' W 074°25'15 1.1
2017-Oct-20 21:09N 39°31' W 074°09'14 6.9
2017-Oct-20 19:09N 39°44' W 074°06'0 1.0
2017-Oct-20 18:54N 39°44' W 074°06'2 4.5
2017-Oct-20 18:25N 39°46' W 074°03'21 2.0
2017-Oct-20 08:09N 40°06' W 074°03'0 0.0
2017-Oct-20 07:54N 40°06' W 074°03'0 0.0
2017-Oct-20 07:27N 40°06' W 074°03'0 0.0
2017-Oct-20 06:54N 40°06' W 074°03'0 0.0
2017-Oct-20 06:03N 40°06' W 074°03'0 0.0
2017-Oct-20 06:00N 40°06' W 074°03'21 1.7
2017-Oct-19 17:39N 40°27' W 073°58'0 1.1
2017-Oct-19 17:30N 40°27' W 073°58'9 2.4
2017-Oct-19 13:42N 40°18' W 073°55'1 3.5
2017-Oct-19 13:29N 40°17' W 073°55'3 5.8
2017-Oct-19 13:00N 40°14' W 073°55'2 2.6
2017-Oct-19 12:20N 40°13' W 073°55'3 8.1
2017-Oct-19 11:56N 40°10' W 073°57'4 9.1
2017-Oct-19 11:30N 40°07' W 074°00'2 2.7
2017-Oct-19 10:45N 40°06' W 074°03'0 0.0
2017-Oct-19 10:27N 40°06' W 074°03'0 0.0
2017-Oct-19 09:57N 40°06' W 074°03'21 1.9
2017-Oct-18 22:52N 40°26' W 073°56'3 7.9
2017-Oct-18 22:26N 40°30' W 073°56'3 7.4
2017-Oct-18 22:01N 40°31' W 073°59'4 7.3
2017-Oct-18 21:30N 40°34' W 074°02'4 8.0
2017-Oct-18 21:01N 40°38' W 074°03'4 7.7
2017-Oct-18 20:31N 40°42' W 074°00'4 7.3
2017-Oct-18 20:01N 40°45' W 073°58'4 9.0
2017-Oct-18 19:31N 40°48' W 073°54'5 8.9
2017-Oct-18 18:59N 40°48' W 073°47'  
Track history (hours):
 
Tides and Currents Weather Stations Pressure Air Temp Water Temp Dewpoint Dewpoint Depression Visibility Wind Speed Wind Dir Waves Ship Positions

Oceanographic research ship Seawolf (United States)

Owner: School of Marine and Atmospheric Sciences, Stony Brook University, NY, Stony Brook, NY. More information available from US FCC via Universal Licensing System and Coast Guard Vessel Documentation Center.

Last reported at 2017-Oct-22 18:57 UTC. Time now 2017-Oct-22 19:14 UTC.
Position N 38°45' W 074°35'.

Length 24 m; draft 3.5 m.

Type: Other ship. MMSI: 367390740.

Date/timePositionNaut miles runAvg speedWind from/ knotsBaromVisibWave heightAir tempDewpointWater temp
2017-Oct-22 18:57N 38°45' W 074°35'5 6.5
2017-Oct-22 18:13N 38°41' W 074°39'1 1.8
2017-Oct-22 17:50N 38°41' W 074°39'1 2.8
2017-Oct-22 17:30N 38°42' W 074°40'4 5.0
2017-Oct-22 16:48N 38°43' W 074°44'3 9.3
2017-Oct-22 16:30N 38°44' W 074°47'3 5.9
2017-Oct-22 16:00N 38°46' W 074°51'1 2.8
2017-Oct-22 15:30N 38°46' W 074°52'4 8.2
2017-Oct-22 15:00N 38°50' W 074°50'2 4.5
2017-Oct-22 14:29N 38°52' W 074°51'1 2.8
2017-Oct-22 14:00N 38°52' W 074°52'1 2.2
2017-Oct-22 13:30N 38°53' W 074°53'1 1.7
2017-Oct-22 13:00N 38°52' W 074°54'1 1.1
2017-Oct-22 12:30N 38°52' W 074°55'1 2.7
2017-Oct-22 12:00N 38°54' W 074°55'1 1.6
2017-Oct-22 11:30N 38°54' W 074°56'3 7.0
2017-Oct-22 11:00N 38°57' W 074°52'1 1.9
2017-Oct-22 10:27N 38°57' W 074°53'0 0.0
2017-Oct-22 09:51N 38°57' W 074°53'0 0.0
2017-Oct-22 09:30N 38°57' W 074°53'0 0.0
2017-Oct-22 09:00N 38°57' W 074°53'0 0.0
2017-Oct-22 08:30N 38°57' W 074°53'0 0.0
2017-Oct-22 07:54N 38°57' W 074°53'0 0.0
2017-Oct-22 07:30N 38°57' W 074°53'0 0.0
2017-Oct-22 07:00N 38°57' W 074°53'0 0.0
2017-Oct-22 06:30N 38°57' W 074°53'0 0.0
2017-Oct-22 05:57N 38°57' W 074°53'0 0.0
2017-Oct-22 05:30N 38°57' W 074°53'0 0.0
2017-Oct-22 05:00N 38°57' W 074°53'0 0.0
2017-Oct-22 04:30N 38°57' W 074°53'0 0.0
2017-Oct-22 04:00N 38°57' W 074°53'0 0.0
2017-Oct-22 03:30N 38°57' W 074°53'0 0.0
2017-Oct-22 03:00N 38°57' W 074°53'0 0.0
2017-Oct-22 02:27N 38°57' W 074°53'0 0.0
2017-Oct-22 02:00N 38°57' W 074°53'0 0.0
2017-Oct-22 01:30N 38°57' W 074°53'0 0.0
2017-Oct-22 01:00N 38°57' W 074°53'0 0.0
2017-Oct-22 00:30N 38°57' W 074°53'0 0.0
2017-Oct-22 00:00N 38°57' W 074°53'0 0.0
2017-Oct-21 23:30N 38°57' W 074°53'0 0.0
2017-Oct-21 23:00N 38°57' W 074°53'1 1.5
2017-Oct-21 22:27N 38°57' W 074°52'2 3.3
2017-Oct-21 21:56N 38°55' W 074°51'4 6.0
2017-Oct-21 21:14N 38°58' W 074°47'17 2.7
2017-Oct-21 15:02N 39°13' W 074°36'1 8.1
2017-Oct-21 14:56N 39°13' W 074°35'4 3.5
2017-Oct-21 13:54N 39°16' W 074°32'1 3.2
2017-Oct-21 13:30N 39°16' W 074°31'1 2.8
2017-Oct-21 13:00N 39°17' W 074°30'1 1.7
2017-Oct-21 12:21N 39°18' W 074°29'3 7.5
2017-Oct-21 12:00N 39°19' W 074°26'3 2.8
2017-Oct-21 10:52N 39°22' W 074°25'15 1.1
2017-Oct-20 21:09N 39°31' W 074°09'14 6.9
2017-Oct-20 19:09N 39°44' W 074°06'0 1.0
2017-Oct-20 18:54N 39°44' W 074°06'2 4.5
2017-Oct-20 18:25N 39°46' W 074°03'21 2.0
2017-Oct-20 08:09N 40°06' W 074°03'0 0.0
2017-Oct-20 07:54N 40°06' W 074°03'0 0.0
2017-Oct-20 07:27N 40°06' W 074°03'0 0.0
2017-Oct-20 06:54N 40°06' W 074°03'0 0.0
2017-Oct-20 06:03N 40°06' W 074°03'0 0.0
2017-Oct-20 06:00N 40°06' W 074°03'21 1.7
2017-Oct-19 17:39N 40°27' W 073°58'0 1.1
2017-Oct-19 17:30N 40°27' W 073°58'9 2.4
2017-Oct-19 13:42N 40°18' W 073°55'1 3.5
2017-Oct-19 13:29N 40°17' W 073°55'3 5.8
2017-Oct-19 13:00N 40°14' W 073°55'2 2.6
2017-Oct-19 12:20N 40°13' W 073°55'3 8.1
2017-Oct-19 11:56N 40°10' W 073°57'4 9.1
2017-Oct-19 11:30N 40°07' W 074°00'2 2.7
2017-Oct-19 10:45N 40°06' W 074°03'0 0.0
2017-Oct-19 10:27N 40°06' W 074°03'0 0.0
2017-Oct-19 09:57N 40°06' W 074°03'21 1.9
2017-Oct-18 22:52N 40°26' W 073°56'3 7.9
2017-Oct-18 22:26N 40°30' W 073°56'3 7.4
2017-Oct-18 22:01N 40°31' W 073°59'4 7.3
2017-Oct-18 21:30N 40°34' W 074°02'4 8.0
2017-Oct-18 21:01N 40°38' W 074°03'4 7.7
2017-Oct-18 20:31N 40°42' W 074°00'4 7.3
2017-Oct-18 20:01N 40°45' W 073°58'4 9.0
2017-Oct-18 19:31N 40°48' W 073°54'5 8.9
2017-Oct-18 18:59N 40°48' W 073°47'  

Dump ship's entire track history